Time;durP1;ratioP1;P1;durP2;ratioP2;P2;SDS_P1;SDS_P2;PMS_P1;PMS_P2;Temp;Humidity;BMP_temperature;BMP_pressure;BME280_temperature;BME280_humidity;BME280_pressure;Samples;Min_cycle;Max_cycle;Signal;HPM_P1;HPM_P2
2022/06/18 00:00:20;;;;;;;7.95;2.42;;;;;;;;;;5024692;28;20045;-79
2022/06/18 00:02:46;;;;;;;7.38;2.08;;;;;;;;;;5025247;28;20378;-79
2022/06/18 00:05:13;;;;;;;12.13;2.00;;;;;;;;;;5013787;28;20799;-79
2022/06/18 00:07:41;;;;;;;9.45;2.22;;;;;;;;;;5022905;28;20034;-79
2022/06/18 00:10:11;;;;;;;5.03;2.10;;;;;;;;;;5021816;28;20054;-79
2022/06/18 00:15:24;;;;;;;9.80;2.50;;;;;;;;;;5023119;28;20702;-79
2022/06/18 00:17:51;;;;;;;7.82;2.30;;;;;;;;;;5014781;28;20034;-79
2022/06/18 00:20:18;;;;;;;7.30;2.42;;;;;;;;;;5022751;28;20523;-79
2022/06/18 00:22:45;;;;;;;9.82;2.17;;;;;;;;;;5025276;28;20486;-79
2022/06/18 00:25:22;;;;;;;5.07;2.50;;;;;;;;;;5018381;28;20144;-79
2022/06/18 00:27:49;;;;;;;8.60;3.03;;;;;;;;;;5025579;28;20037;-79
2022/06/18 00:30:17;;;;;;;4.72;2.28;;;;;;;;;;5016204;28;20498;-79
2022/06/18 00:32:43;;;;;;;6.45;2.50;;;;;;;;;;5016624;28;20570;-79
2022/06/18 00:35:10;;;;;;;5.40;2.38;;;;;;;;;;5020802;28;20502;-78
2022/06/18 00:37:36;;;;;;;5.93;2.35;;;;;;;;;;5018797;28;20030;-79
2022/06/18 00:40:10;;;;;;;6.25;2.20;;;;;;;;;;5017433;28;20458;-78
2022/06/18 00:42:37;;;;;;;5.32;2.20;;;;;;;;;;5026815;28;20076;-79
2022/06/18 00:45:03;;;;;;;7.97;2.35;;;;;;;;;;5016707;28;20034;-79
2022/06/18 00:47:55;;;;;;;5.00;2.38;;;;;;;;;;5019091;28;20135;-79
2022/06/18 00:50:21;;;;;;;;;;;;;;;;;;5010668;28;20811;-79
2022/06/18 00:52:50;;;;;;;6.28;2.70;;;;;;;;;;5016702;28;20000;-78
2022/06/18 00:55:21;;;;;;;6.53;2.42;;;;;;;;;;5014496;28;20034;-79
2022/06/18 00:57:49;;;;;;;6.32;2.30;;;;;;;;;;5016308;28;20040;-79
2022/06/18 01:00:21;;;;;;;7.68;2.45;;;;;;;;;;5027467;28;20108;-79
2022/06/18 01:02:47;;;;;;;6.80;2.90;;;;;;;;;;5012152;28;20041;-79
2022/06/18 01:05:15;;;;;;;7.70;2.25;;;;;;;;;;5012001;28;20041;-79
2022/06/18 01:07:41;;;;;;;6.95;2.45;;;;;;;;;;5021523;28;20398;-79
2022/06/18 01:10:13;;;;;;;6.85;2.08;;;;;;;;;;5016976;28;20053;-79
2022/06/18 01:12:40;;;;;;;5.50;1.92;;;;;;;;;;5017928;28;20479;-79
2022/06/18 01:15:08;;;;;;;4.65;2.33;;;;;;;;;;5022860;28;20029;-79
2022/06/18 01:17:36;;;;;;;7.57;2.63;;;;;;;;;;5013781;28;20518;-79
2022/06/18 01:20:04;;;;;;;7.35;2.58;;;;;;;;;;5014230;28;20038;-79
2022/06/18 01:22:52;;;;;;;7.53;2.70;;;;;;;;;;5023683;28;20495;-79
2022/06/18 01:25:18;;;;;;;4.00;1.90;;;;;;;;;;5017262;28;20125;-79
2022/06/18 01:27:44;;;;;;;7.60;3.83;;;;;;;;;;5011088;28;20175;-79
2022/06/18 01:30:14;;;;;;;4.13;1.98;;;;;;;;;;5026997;28;20033;-79
2022/06/18 01:32:40;;;;;;;5.88;1.70;;;;;;;;;;5023680;28;20438;-79
2022/06/18 01:35:06;;;;;;;4.65;1.85;;;;;;;;;;5018296;28;20033;-79
2022/06/18 01:37:32;;;;;;;4.68;1.80;;;;;;;;;;5016457;28;20050;-79
2022/06/18 01:40:01;;;;;;;9.98;3.35;;;;;;;;;;5015880;28;20049;-79
2022/06/18 01:42:30;;;;;;;7.85;2.30;;;;;;;;;;5016118;28;20045;-79
2022/06/18 01:44:56;;;;;;;6.97;2.10;;;;;;;;;;5026994;28;20042;-79
2022/06/18 01:47:40;;;;;;;5.75;2.60;;;;;;;;;;5020494;28;20117;-79
2022/06/18 01:50:13;;;;;;;5.47;2.30;;;;;;;;;;5028455;28;20474;-79
2022/06/18 01:52:50;;;;;;;5.05;2.05;;;;;;;;;;5019416;28;20124;-79
2022/06/18 01:55:19;;;;;;;8.05;2.22;;;;;;;;;;5020236;28;20465;-79
2022/06/18 01:57:49;;;;;;;7.65;2.58;;;;;;;;;;5023345;28;20045;-79
2022/06/18 02:00:19;;;;;;;7.82;2.67;;;;;;;;;;5011650;28;20164;-78
2022/06/18 02:02:46;;;;;;;7.70;2.40;;;;;;;;;;5019893;28;20033;-79
2022/06/18 02:05:13;;;;;;;6.75;2.40;;;;;;;;;;5018386;28;20048;-79
2022/06/18 02:07:40;;;;;;;8.43;2.90;;;;;;;;;;5010920;28;20111;-78
2022/06/18 02:10:07;;;;;;;7.20;2.78;;;;;;;;;;5028135;28;20058;-79
2022/06/18 02:12:34;;;;;;;9.35;3.17;;;;;;;;;;5016840;28;20040;-79
2022/06/18 02:15:05;;;;;;;10.25;3.30;;;;;;;;;;5017068;28;20483;-79
2022/06/18 02:17:32;;;;;;;6.90;3.13;;;;;;;;;;5010625;28;20037;-79
2022/06/18 02:20:03;;;;;;;9.27;3.38;;;;;;;;;;5021267;28;20038;-79
2022/06/18 02:22:36;;;;;;;9.65;2.90;;;;;;;;;;5010019;28;20575;-79
2022/06/18 02:25:03;;;;;;;5.75;2.50;;;;;;;;;;5013958;28;20064;-79
2022/06/18 02:27:29;;;;;;;7.82;2.55;;;;;;;;;;5028683;28;20041;-79
2022/06/18 02:29:55;;;;;;;6.93;2.53;;;;;;;;;;5022333;28;20050;-78
2022/06/18 02:32:31;;;;;;;6.32;2.53;;;;;;;;;;5020575;28;20022;-79
2022/06/18 02:34:57;;;;;;;6.78;2.38;;;;;;;;;;5010317;28;20774;-79
2022/06/18 02:37:25;;;;;;;6.22;2.67;;;;;;;;;;5021373;28;20033;-79
2022/06/18 02:39:54;;;;;;;7.78;3.15;;;;;;;;;;5016128;28;20033;-79
2022/06/18 02:42:20;;;;;;;5.93;2.42;;;;;;;;;;5017586;28;20030;-79
2022/06/18 02:44:47;;;;;;;8.65;3.00;;;;;;;;;;5013471;28;20042;-79
2022/06/18 02:47:14;;;;;;;14.02;3.17;;;;;;;;;;5020094;28;20034;-79
2022/06/18 02:49:43;;;;;;;5.13;2.83;;;;;;;;;;5010033;28;20052;-79
2022/06/18 02:52:09;;;;;;;8.82;2.60;;;;;;;;;;5012787;28;20505;-78
2022/06/18 02:54:35;;;;;;;8.32;2.92;;;;;;;;;;5021186;28;20033;-79
2022/06/18 02:57:04;;;;;;;9.40;3.00;;;;;;;;;;5022617;28;20098;-79
2022/06/18 02:59:30;;;;;;;7.85;2.78;;;;;;;;;;5029709;28;20476;-79
2022/06/18 03:01:56;;;;;;;8.73;2.75;;;;;;;;;;5027349;28;20029;-79
2022/06/18 03:04:23;;;;;;;9.30;3.10;;;;;;;;;;5022166;28;20042;-79
2022/06/18 03:06:48;;;;;;;12.77;3.08;;;;;;;;;;5018209;28;20034;-79
2022/06/18 03:09:14;;;;;;;9.68;2.85;;;;;;;;;;5025564;28;20650;-79
2022/06/18 03:14:25;;;;;;;5.30;2.60;;;;;;;;;;5020106;28;20411;-79
2022/06/18 03:16:51;;;;;;;9.88;2.60;;;;;;;;;;5025796;28;20032;-79
2022/06/18 03:19:26;;;;;;;9.35;3.75;;;;;;;;;;5029049;28;20893;-79
2022/06/18 03:21:54;;;;;;;4.97;2.65;;;;;;;;;;5024288;28;20029;-79
2022/06/18 03:24:20;;;;;;;7.15;2.60;;;;;;;;;;5014928;28;20529;-78
2022/06/18 03:26:46;;;;;;;7.95;2.90;;;;;;;;;;5025258;28;20030;-78
2022/06/18 03:29:12;;;;;;;7.18;2.55;;;;;;;;;;5021444;28;20034;-78
2022/06/18 03:31:38;;;;;;;7.15;2.90;;;;;;;;;;5023996;28;20026;-79
2022/06/18 03:34:04;;;;;;;10.40;2.85;;;;;;;;;;5019420;28;20052;-79
2022/06/18 03:36:31;;;;;;;11.60;2.88;;;;;;;;;;5016959;28;20049;-79
2022/06/18 03:38:57;;;;;;;11.75;3.28;;;;;;;;;;5022209;28;20818;-78
2022/06/18 03:41:23;;;;;;;8.10;2.90;;;;;;;;;;5026748;28;20033;-79
2022/06/18 03:43:52;;;;;;;8.65;2.85;;;;;;;;;;5023761;28;20506;-79
2022/06/18 03:46:18;;;;;;;6.80;3.13;;;;;;;;;;5024308;28;20108;-79
2022/06/18 03:48:53;;;;;;;11.18;2.45;;;;;;;;;;5020344;28;20847;-79
2022/06/18 03:51:20;;;;;;;9.18;2.97;;;;;;;;;;5026258;28;20044;-79
2022/06/18 03:53:46;;;;;;;7.47;3.30;;;;;;;;;;5027865;28;20033;-79
2022/06/18 03:56:14;;;;;;;9.25;3.42;;;;;;;;;;5021183;28;20041;-79
2022/06/18 03:58:40;;;;;;;7.13;3.22;;;;;;;;;;5032233;28;20482;-79
2022/06/18 04:01:07;;;;;;;10.35;2.78;;;;;;;;;;5031689;28;20036;-78
2022/06/18 04:03:33;;;;;;;8.02;3.03;;;;;;;;;;5018430;28;20041;-79
2022/06/18 04:05:59;;;;;;;9.05;3.30;;;;;;;;;;5021274;28;20034;-79
2022/06/18 04:08:25;;;;;;;10.60;3.35;;;;;;;;;;5024277;28;20044;-79
2022/06/18 04:10:51;;;;;;;7.57;2.67;;;;;;;;;;5016899;28;20046;-79
2022/06/18 04:13:17;;;;;;;7.75;2.63;;;;;;;;;;5013516;28;20041;-79
2022/06/18 04:15:43;;;;;;;9.20;3.05;;;;;;;;;;5019284;28;20033;-79
2022/06/18 04:18:11;;;;;;;6.50;2.40;;;;;;;;;;5030742;28;20044;-79
2022/06/18 04:20:37;;;;;;;9.00;2.85;;;;;;;;;;5026352;28;20037;-79
2022/06/18 04:23:04;;;;;;;7.63;2.70;;;;;;;;;;5023748;28;20075;-78
2022/06/18 04:25:31;;;;;;;8.13;2.80;;;;;;;;;;5023275;28;20041;-78
2022/06/18 04:27:57;;;;;;;4.85;2.58;;;;;;;;;;5024295;28;20029;-79
2022/06/18 04:30:24;;;;;;;9.15;3.15;;;;;;;;;;5014959;28;20387;-78
2022/06/18 04:32:51;;;;;;;9.20;2.90;;;;;;;;;;5016774;28;20026;-79
2022/06/18 04:35:17;;;;;;;10.25;2.80;;;;;;;;;;5014450;28;20042;-79
2022/06/18 04:37:44;;;;;;;11.00;3.67;;;;;;;;;;5016743;28;20033;-79
2022/06/18 04:40:14;;;;;;;11.65;3.38;;;;;;;;;;5023139;28;20560;-79
2022/06/18 04:42:40;;;;;;;11.98;3.67;;;;;;;;;;5020301;28;20033;-78
2022/06/18 04:45:07;;;;;;;9.15;3.05;;;;;;;;;;5023455;28;20065;-79
2022/06/18 04:47:33;;;;;;;6.53;2.78;;;;;;;;;;5023035;28;20082;-79
2022/06/18 04:49:59;;;;;;;8.70;3.20;;;;;;;;;;5028811;28;20033;-79
2022/06/18 04:52:25;;;;;;;8.25;3.00;;;;;;;;;;5013236;28;20465;-79
2022/06/18 04:54:54;;;;;;;9.48;3.22;;;;;;;;;;5026727;28;20037;-79
2022/06/18 04:57:20;;;;;;;10.77;3.25;;;;;;;;;;5012276;28;20109;-79
2022/06/18 04:59:47;;;;;;;8.98;3.13;;;;;;;;;;5026476;28;20042;-79
2022/06/18 05:02:31;;;;;;;9.30;3.60;;;;;;;;;;5017384;28;20117;-79
2022/06/18 05:04:57;;;;;;;7.63;3.88;;;;;;;;;;5013004;28;20532;-79
2022/06/18 05:07:23;;;;;;;8.65;4.25;;;;;;;;;;5013403;28;20079;-79
2022/06/18 05:09:49;;;;;;;9.60;4.43;;;;;;;;;;5018230;28;20091;-79
2022/06/18 05:12:15;;;;;;;9.57;3.70;;;;;;;;;;5014574;28;20030;-78
2022/06/18 05:14:42;;;;;;;11.40;4.03;;;;;;;;;;5021879;28;20041;-79
2022/06/18 05:17:10;;;;;;;8.63;3.40;;;;;;;;;;5026177;28;20497;-79
2022/06/18 05:19:36;;;;;;;9.73;3.65;;;;;;;;;;5015312;28;20648;-79
2022/06/18 05:22:03;;;;;;;8.43;3.47;;;;;;;;;;5013439;28;20029;-79
2022/06/18 05:24:29;;;;;;;10.93;3.83;;;;;;;;;;5013275;28;20038;-79
2022/06/18 05:26:56;;;;;;;18.33;4.00;;;;;;;;;;5011419;28;20040;-79
2022/06/18 05:29:22;;;;;;;9.85;3.83;;;;;;;;;;5025118;28;20033;-78
2022/06/18 05:31:48;;;;;;;14.23;4.68;;;;;;;;;;5012172;28;20032;-79
2022/06/18 05:34:14;;;;;;;8.65;3.70;;;;;;;;;;5016864;28;20065;-79
2022/06/18 05:36:41;;;;;;;9.82;3.92;;;;;;;;;;5011298;28;20037;-79
2022/06/18 05:39:07;;;;;;;10.85;3.53;;;;;;;;;;5014110;28;20378;-79
2022/06/18 05:41:33;;;;;;;10.02;3.72;;;;;;;;;;5026975;28;20834;-79
2022/06/18 05:44:00;;;;;;;9.55;3.45;;;;;;;;;;5014588;28;20037;-79
2022/06/18 05:46:26;;;;;;;9.95;3.63;;;;;;;;;;5020160;28;20693;-79
2022/06/18 05:48:55;;;;;;;8.55;3.05;;;;;;;;;;5011044;28;20132;-79
2022/06/18 05:51:21;;;;;;;7.35;3.38;;;;;;;;;;5022811;28;20038;-79
2022/06/18 05:53:48;;;;;;;9.98;3.25;;;;;;;;;;5015488;28;20036;-79
2022/06/18 05:56:14;;;;;;;14.00;3.78;;;;;;;;;;5017440;28;20022;-79
2022/06/18 05:58:40;;;;;;;11.45;3.33;;;;;;;;;;5009937;28;20469;-78
2022/06/18 06:01:06;;;;;;;10.70;3.55;;;;;;;;;;5020921;28;20104;-79
2022/06/18 06:03:33;;;;;;;11.48;3.25;;;;;;;;;;5029421;28;20040;-79
2022/06/18 06:05:59;;;;;;;11.80;3.20;;;;;;;;;;5018484;28;20084;-79
2022/06/18 06:08:25;;;;;;;13.40;3.10;;;;;;;;;;5015103;28;20040;-79
2022/06/18 06:13:36;;;;;;;13.90;3.63;;;;;;;;;;5019236;28;20079;-80
2022/06/18 06:16:02;;;;;;;8.57;3.90;;;;;;;;;;5017228;28;20029;-79
2022/06/18 06:18:29;;;;;;;9.85;3.70;;;;;;;;;;5014709;28;20089;-79
2022/06/18 06:20:56;;;;;;;12.45;3.67;;;;;;;;;;5018849;28;20112;-74
2022/06/18 06:23:22;;;;;;;15.93;3.78;;;;;;;;;;5020303;28;20034;-72
2022/06/18 06:25:49;;;;;;;12.52;3.50;;;;;;;;;;5017675;28;20033;-72
2022/06/18 06:28:17;;;;;;;10.52;3.30;;;;;;;;;;5017720;28;20412;-76
2022/06/18 06:30:43;;;;;;;13.23;3.50;;;;;;;;;;5013236;28;20075;-78
2022/06/18 06:33:09;;;;;;;14.00;3.72;;;;;;;;;;5014016;28;20033;-78
2022/06/18 06:35:36;;;;;;;11.55;4.05;;;;;;;;;;5013412;28;20033;-75
2022/06/18 06:38:02;;;;;;;17.95;3.72;;;;;;;;;;5009042;28;20025;-75
2022/06/18 06:40:32;;;;;;;8.15;3.53;;;;;;;;;;5008197;28;20026;-75
2022/06/18 06:42:58;;;;;;;14.07;3.97;;;;;;;;;;5009348;28;20029;-74
2022/06/18 06:45:30;;;;;;;9.45;3.03;;;;;;;;;;5010264;28;20029;-74
2022/06/18 06:47:57;;;;;;;15.07;3.70;;;;;;;;;;5010803;28;20067;-75
2022/06/18 06:50:24;;;;;;;15.93;3.45;;;;;;;;;;5010412;28;20038;-75
2022/06/18 06:52:50;;;;;;;13.02;3.55;;;;;;;;;;5010698;28;20365;-75
2022/06/18 06:58:06;;;;;;;9.30;4.10;;;;;;;;;;5012205;28;20122;-75
2022/06/18 07:00:34;;;;;;;12.18;4.50;;;;;;;;;;5009977;28;20045;-75
2022/06/18 07:03:00;;;;;;;14.77;4.68;;;;;;;;;;5013372;28;20026;-75
2022/06/18 07:05:26;;;;;;;11.25;4.38;;;;;;;;;;5011370;28;20042;-75
2022/06/18 07:07:52;;;;;;;9.82;4.10;;;;;;;;;;5013009;28;20037;-75
2022/06/18 07:10:18;;;;;;;10.45;3.55;;;;;;;;;;5005639;28;20058;-75
2022/06/18 07:12:44;;;;;;;10.48;3.97;;;;;;;;;;5013956;28;20033;-75
2022/06/18 07:15:11;;;;;;;8.68;3.55;;;;;;;;;;5009367;28;20542;-75
2022/06/18 07:17:37;;;;;;;7.70;3.70;;;;;;;;;;5020006;28;20029;-75
2022/06/18 07:20:04;;;;;;;8.48;3.20;;;;;;;;;;5002954;28;20529;-75
2022/06/18 07:22:31;;;;;;;10.50;4.32;;;;;;;;;;5009501;28;20539;-75
2022/06/18 07:24:57;;;;;;;11.48;3.67;;;;;;;;;;5007406;28;20474;-75
2022/06/18 07:27:23;;;;;;;13.50;3.78;;;;;;;;;;5008096;28;20026;-75
2022/06/18 07:29:49;;;;;;;11.38;3.90;;;;;;;;;;5013534;28;20818;-75
2022/06/18 07:32:17;;;;;;;12.35;4.22;;;;;;;;;;5012133;28;20026;-74
2022/06/18 07:34:44;;;;;;;13.32;3.80;;;;;;;;;;5010177;28;20041;-74
2022/06/18 07:37:10;;;;;;;12.70;3.95;;;;;;;;;;5014975;28;20029;-74
2022/06/18 07:39:36;;;;;;;9.70;3.40;;;;;;;;;;5017680;28;20120;-74
2022/06/18 07:42:03;;;;;;;9.05;3.53;;;;;;;;;;5016245;28;20026;-74
2022/06/18 07:44:29;;;;;;;17.23;3.72;;;;;;;;;;5017458;28;20052;-75
2022/06/18 07:46:59;;;;;;;11.02;3.65;;;;;;;;;;5013532;28;20033;-75
2022/06/18 07:49:25;;;;;;;7.88;3.65;;;;;;;;;;5014312;28;20033;-74
2022/06/18 07:51:51;;;;;;;10.95;3.47;;;;;;;;;;5012645;28;20883;-74
2022/06/18 07:54:18;;;;;;;14.40;5.18;;;;;;;;;;5014980;28;20041;-75
2022/06/18 07:56:44;;;;;;;10.00;3.33;;;;;;;;;;5013462;28;20030;-74
2022/06/18 07:59:10;;;;;;;14.18;4.05;;;;;;;;;;5014289;28;20202;-74
2022/06/18 08:01:37;;;;;;;12.77;3.85;;;;;;;;;;5011734;28;20044;-74
2022/06/18 08:04:04;;;;;;;11.73;3.70;;;;;;;;;;5015118;28;20103;-74
2022/06/18 08:06:30;;;;;;;12.20;3.75;;;;;;;;;;5015297;28;20447;-74
2022/06/18 08:08:56;;;;;;;11.98;3.30;;;;;;;;;;5011709;28;20116;-76
2022/06/18 08:11:23;;;;;;;10.52;3.42;;;;;;;;;;5015940;28;20053;-76
2022/06/18 08:13:50;;;;;;;13.27;3.00;;;;;;;;;;5010238;28;20033;-76
2022/06/18 08:16:22;;;;;;;10.63;3.92;;;;;;;;;;5011281;28;20037;-75
2022/06/18 08:18:48;;;;;;;11.75;4.68;;;;;;;;;;5013357;28;20345;-75
2022/06/18 08:21:18;;;;;;;7.75;3.53;;;;;;;;;;5009287;28;22105;-75
2022/06/18 08:23:44;;;;;;;8.38;3.58;;;;;;;;;;5015996;28;20045;-76
2022/06/18 08:26:10;;;;;;;14.02;3.75;;;;;;;;;;5011613;28;20037;-75
2022/06/18 08:28:37;;;;;;;9.10;3.22;;;;;;;;;;5010864;28;20045;-75
2022/06/18 08:31:04;;;;;;;17.00;3.83;;;;;;;;;;5011967;28;20057;-75
2022/06/18 08:33:30;;;;;;;12.18;3.88;;;;;;;;;;5015429;28;20033;-75
2022/06/18 08:35:57;;;;;;;14.20;3.97;;;;;;;;;;5014106;28;20037;-74
2022/06/18 08:38:23;;;;;;;13.30;3.40;;;;;;;;;;5014530;28;20037;-76
2022/06/18 08:40:56;;;;;;;12.93;3.58;;;;;;;;;;5011569;28;20026;-75
2022/06/18 08:43:31;;;;;;;13.35;3.70;;;;;;;;;;5015823;28;20079;-75
2022/06/18 08:46:20;;;;;;;16.48;4.35;;;;;;;;;;5016496;28;20030;-75
2022/06/18 08:48:46;;;;;;;12.85;3.75;;;;;;;;;;5016302;28;20037;-75
2022/06/18 08:51:31;;;;;;;14.00;3.70;;;;;;;;;;5011100;28;20052;-76
2022/06/18 08:54:03;;;;;;;16.15;4.00;;;;;;;;;;5015518;28;20063;-75
2022/06/18 08:56:36;;;;;;;19.58;4.22;;;;;;;;;;5012483;28;20948;-76
2022/06/18 08:59:09;;;;;;;9.43;3.35;;;;;;;;;;5012407;28;20041;-75
2022/06/18 09:01:48;;;;;;;13.32;3.78;;;;;;;;;;5015631;28;20034;-75
2022/06/18 09:04:36;;;;;;;13.10;4.18;;;;;;;;;;5016691;28;20041;-75
2022/06/18 09:07:17;;;;;;;13.57;4.13;;;;;;;;;;5014422;28;20084;-75
2022/06/18 09:09:55;;;;;;;15.60;3.97;;;;;;;;;;5009859;28;20038;-75
2022/06/18 09:12:27;;;;;;;10.65;3.40;;;;;;;;;;5015931;28;20038;-75
2022/06/18 09:14:53;;;;;;;;;;;;;;;;;;5014628;28;20034;-75
2022/06/18 09:17:31;;;;;;;15.85;3.25;;;;;;;;;;5014669;28;19952;-73
2022/06/18 09:20:06;;;;;;;16.42;3.78;;;;;;;;;;5014849;28;20044;-75
2022/06/18 09:22:35;;;;;;;13.85;3.72;;;;;;;;;;5015573;28;20040;-75
2022/06/18 09:25:08;;;;;;;13.07;3.88;;;;;;;;;;5018678;28;20116;-75
2022/06/18 09:27:56;;;;;;;11.38;3.72;;;;;;;;;;5014897;28;20033;-74
2022/06/18 09:30:40;;;;;;;12.02;3.78;;;;;;;;;;5012035;28;20141;-75
2022/06/18 09:33:22;;;;;;;13.88;3.53;;;;;;;;;;5014311;28;20064;-73
2022/06/18 09:35:51;;;;;;;13.65;3.50;;;;;;;;;;5015207;28;20805;-73
2022/06/18 09:38:23;;;;;;;10.65;3.83;;;;;;;;;;5015516;28;20478;-73
2022/06/18 09:40:51;;;;;;;11.07;3.28;;;;;;;;;;5016053;28;20029;-73
2022/06/18 09:43:17;;;;;;;13.02;3.75;;;;;;;;;;5009291;28;20589;-73
2022/06/18 09:45:47;;;;;;;9.93;3.38;;;;;;;;;;5011725;28;20034;-74
2022/06/18 09:48:14;;;;;;;9.38;2.92;;;;;;;;;;5016363;28;20167;-75
2022/06/18 09:50:40;;;;;;;11.40;3.35;;;;;;;;;;5010971;28;20029;-75
2022/06/18 09:53:07;;;;;;;13.23;3.38;;;;;;;;;;5012386;28;20021;-73
2022/06/18 09:55:33;;;;;;;12.38;3.33;;;;;;;;;;5013396;28;20030;-75
2022/06/18 09:58:00;;;;;;;14.52;3.67;;;;;;;;;;5010219;28;20478;-73
2022/06/18 10:00:29;;;;;;;14.52;3.33;;;;;;;;;;5012240;28;20037;-74
2022/06/18 10:02:58;;;;;;;12.57;3.60;;;;;;;;;;5011626;28;20034;-73
2022/06/18 10:08:15;;;;;;;14.73;3.78;;;;;;;;;;5010644;28;20056;-73
2022/06/18 10:10:46;;;;;;;14.27;3.22;;;;;;;;;;5011398;28;20807;-73
2022/06/18 10:13:14;;;;;;;13.23;3.75;;;;;;;;;;5008538;28;20021;-74
2022/06/18 10:15:41;;;;;;;11.48;3.45;;;;;;;;;;5010508;28;20022;-73
2022/06/18 10:18:07;;;;;;;13.35;4.05;;;;;;;;;;5022747;28;20030;-73
2022/06/18 10:20:41;;;;;;;8.68;3.10;;;;;;;;;;5008553;28;20092;-74
2022/06/18 10:23:15;;;;;;;9.25;2.90;;;;;;;;;;5012970;28;20025;-74
2022/06/18 10:26:00;;;;;;;10.75;2.92;;;;;;;;;;5015079;28;20076;-73
2022/06/18 10:28:45;;;;;;;11.05;3.17;;;;;;;;;;5011326;28;20037;-76
2022/06/18 10:31:22;;;;;;;7.80;3.05;;;;;;;;;;5009234;28;20105;-74
2022/06/18 10:34:03;;;;;;;9.10;3.08;;;;;;;;;;5011547;28;20045;-73
2022/06/18 10:36:34;;;;;;;7.23;2.33;;;;;;;;;;5013360;28;20030;-73
2022/06/18 10:39:12;;;;;;;11.68;3.22;;;;;;;;;;5015227;28;20041;-74
2022/06/18 10:41:56;;;;;;;10.98;3.03;;;;;;;;;;5012827;28;20033;-75
2022/06/18 10:44:41;;;;;;;9.90;2.60;;;;;;;;;;5013232;28;20041;-74
2022/06/18 10:47:09;;;;;;;14.75;3.20;;;;;;;;;;5019733;28;20036;-75
2022/06/18 10:49:35;;;;;;;10.52;2.97;;;;;;;;;;5015526;28;20133;-73
2022/06/18 10:52:02;;;;;;;10.65;3.00;;;;;;;;;;5013816;28;20600;-74
2022/06/18 10:54:29;;;;;;;10.70;3.40;;;;;;;;;;5012819;28;20041;-76
2022/06/18 10:56:57;;;;;;;11.25;3.28;;;;;;;;;;5007429;28;20030;-73
2022/06/18 10:59:30;;;;;;;9.27;2.47;;;;;;;;;;5009163;28;20037;-74
2022/06/18 11:02:01;;;;;;;9.52;3.13;;;;;;;;;;5009867;28;20037;-76
2022/06/18 11:04:30;;;;;;;7.15;2.45;;;;;;;;;;5011655;28;20076;-74
2022/06/18 11:07:01;;;;;;;13.18;3.50;;;;;;;;;;5011200;28;20117;-73
2022/06/18 11:09:34;;;;;;;11.32;3.33;;;;;;;;;;5016733;28;20062;-74
2022/06/18 11:12:01;;;;;;;8.38;2.90;;;;;;;;;;5012185;28;20475;-73
2022/06/18 11:14:27;;;;;;;12.48;3.22;;;;;;;;;;5021002;28;20104;-73
2022/06/18 11:16:55;;;;;;;12.95;3.08;;;;;;;;;;5016929;28;20044;-73
2022/06/18 11:19:30;;;;;;;12.73;3.35;;;;;;;;;;5013297;28;20100;-73
2022/06/18 11:21:56;;;;;;;8.98;3.50;;;;;;;;;;5014519;28;20535;-73
2022/06/18 11:24:33;;;;;;;8.57;3.33;;;;;;;;;;5016742;28;20034;-74
2022/06/18 11:27:03;;;;;;;15.82;3.35;;;;;;;;;;5014528;28;20037;-74
2022/06/18 11:29:33;;;;;;;11.32;2.88;;;;;;;;;;5018008;28;20041;-74
2022/06/18 11:32:01;;;;;;;12.55;3.38;;;;;;;;;;5015709;28;20065;-74
2022/06/18 11:34:29;;;;;;;16.60;3.30;;;;;;;;;;5016670;28;20061;-73
2022/06/18 11:36:56;;;;;;;13.40;3.50;;;;;;;;;;5016434;28;20018;-73
2022/06/18 11:39:28;;;;;;;10.55;3.10;;;;;;;;;;5017260;28;20145;-74
2022/06/18 11:42:00;;;;;;;15.55;2.92;;;;;;;;;;5017056;28;20029;-73
2022/06/18 11:44:28;;;;;;;11.52;3.03;;;;;;;;;;5014963;28;20049;-74
2022/06/18 11:47:09;;;;;;;13.32;3.22;;;;;;;;;;5014522;28;20153;-73
2022/06/18 11:49:39;;;;;;;23.20;3.37;;;;;;;;;;5015645;28;20809;-74
2022/06/18 11:52:21;;;;;;;10.97;3.20;;;;;;;;;;5013283;28;20029;-74
2022/06/18 11:54:53;;;;;;;8.60;3.00;;;;;;;;;;5016612;28;20041;-74
2022/06/18 11:57:31;;;;;;;10.85;3.58;;;;;;;;;;5020151;28;20399;-74
2022/06/18 12:00:00;;;;;;;10.18;3.60;;;;;;;;;;5012122;28;20061;-74
2022/06/18 12:02:37;;;;;;;16.45;3.40;;;;;;;;;;5017423;28;20100;-73
2022/06/18 12:05:09;;;;;;;13.30;3.45;;;;;;;;;;5014880;28;20120;-74
2022/06/18 12:07:40;;;;;;;9.38;3.00;;;;;;;;;;5014242;28;20053;-74
2022/06/18 12:10:17;;;;;;;8.82;2.80;;;;;;;;;;5013387;28;20052;-74
2022/06/18 12:12:52;;;;;;;20.75;3.38;;;;;;;;;;5019156;28;20058;-73
2022/06/18 12:15:37;;;;;;;12.38;3.03;;;;;;;;;;5012771;28;20045;-74
2022/06/18 12:18:15;;;;;;;8.60;2.75;;;;;;;;;;5014517;28;20077;-74
2022/06/18 12:20:49;;;;;;;12.85;3.30;;;;;;;;;;5019428;28;20120;-73
2022/06/18 12:23:27;;;;;;;11.43;2.78;;;;;;;;;;5009524;28;20039;-74
2022/06/18 12:25:59;;;;;;;7.97;3.50;;;;;;;;;;5009118;28;20434;-74
2022/06/18 12:28:34;;;;;;;9.60;3.17;;;;;;;;;;5008257;28;20030;-74
2022/06/18 12:31:12;;;;;;;8.73;3.00;;;;;;;;;;5011482;28;20033;-74
2022/06/18 12:33:38;;;;;;;9.35;3.28;;;;;;;;;;5015498;28;20037;-74
2022/06/18 12:36:11;;;;;;;13.00;3.10;;;;;;;;;;5011007;28;20036;-74
2022/06/18 12:38:37;;;;;;;11.95;2.80;;;;;;;;;;5013037;28;20036;-74
2022/06/18 12:41:12;;;;;;;12.27;3.47;;;;;;;;;;5012368;28;20038;-74
2022/06/18 12:43:44;;;;;;;7.97;3.05;;;;;;;;;;5012589;28;20033;-73
2022/06/18 12:46:16;;;;;;;16.88;3.08;;;;;;;;;;5010582;28;20152;-74
2022/06/18 12:49:02;;;;;;;10.43;3.35;;;;;;;;;;5014859;28;20037;-74
2022/06/18 12:51:42;;;;;;;12.15;2.83;;;;;;;;;;5015108;28;20029;-74
2022/06/18 12:54:09;;;;;;;13.10;3.42;;;;;;;;;;5017214;28;20148;-74
2022/06/18 12:56:38;;;;;;;12.35;3.08;;;;;;;;;;5013540;28;20116;-74
2022/06/18 12:59:24;;;;;;;14.88;4.18;;;;;;;;;;5012179;28;20091;-74
2022/06/18 13:01:52;;;;;;;16.17;3.90;;;;;;;;;;5015524;28;20030;-74
2022/06/18 13:04:18;;;;;;;18.33;3.35;;;;;;;;;;5014105;28;20770;-74
2022/06/18 13:06:56;;;;;;;13.38;3.60;;;;;;;;;;5017012;28;20577;-74
2022/06/18 13:09:25;;;;;;;15.60;3.50;;;;;;;;;;5010425;28;20046;-75
2022/06/18 13:11:56;;;;;;;10.40;3.40;;;;;;;;;;5020673;28;20049;-75
2022/06/18 13:14:31;;;;;;;10.95;3.03;;;;;;;;;;5010819;28;20092;-75
2022/06/18 13:16:57;;;;;;;9.02;2.95;;;;;;;;;;5013594;28;20053;-76
2022/06/18 13:19:44;;;;;;;9.13;3.13;;;;;;;;;;5012808;28;20575;-75
2022/06/18 13:22:10;;;;;;;9.50;2.80;;;;;;;;;;5013550;28;20362;-75
2022/06/18 13:30:11;;;;;;;9.38;3.38;;;;;;;;;;5016787;28;20158;-75
2022/06/18 13:32:43;;;;;;;9.70;3.58;;;;;;;;;;5015917;28;20650;-75
2022/06/18 13:35:13;;;;;;;11.68;3.05;;;;;;;;;;5011291;28;20041;-75
2022/06/18 13:38:05;;;;;;;11.93;3.05;;;;;;;;;;5013696;28;20037;-75
2022/06/18 13:40:49;;;;;;;11.85;3.20;;;;;;;;;;5014048;28;20099;-75
2022/06/18 13:43:28;;;;;;;10.70;3.88;;;;;;;;;;5015679;28;20025;-75
2022/06/18 13:45:57;;;;;;;12.65;3.88;;;;;;;;;;5008654;28;20026;-75
2022/06/18 13:48:26;;;;;;;13.38;3.20;;;;;;;;;;5015210;28;20041;-75
2022/06/18 13:50:53;;;;;;;13.05;3.50;;;;;;;;;;5012706;28;20030;-75
2022/06/18 13:53:23;;;;;;;15.57;3.30;;;;;;;;;;5013512;28;20034;-75
2022/06/18 13:55:49;;;;;;;13.65;3.47;;;;;;;;;;5013145;28;20076;-75
2022/06/18 13:58:24;;;;;;;15.23;3.15;;;;;;;;;;5015409;28;20510;-75
2022/06/18 14:00:50;;;;;;;12.52;3.47;;;;;;;;;;5011359;28;20036;-75
